createdAt,value
2022-12-27T00:00:09.470Z,43.97
2022-12-27T00:00:45.446Z,41.65
2022-12-27T00:01:20.117Z,47.05
2022-12-27T00:01:52.006Z,41.25
2022-12-27T00:02:23.914Z,42.47
2022-12-27T00:02:55.979Z,42.35
2022-12-27T00:03:28.414Z,42.13
2022-12-27T00:04:00.437Z,38.58
2022-12-27T00:04:32.294Z,38.70
2022-12-27T00:05:05.238Z,39.40
2022-12-27T00:05:37.099Z,42.40
2022-12-27T00:06:21.003Z,44.05
2022-12-27T00:06:53.182Z,42.47
2022-12-27T00:07:25.107Z,42.80
2022-12-27T00:07:56.959Z,45.05
2022-12-27T00:08:28.804Z,40.83
2022-12-27T00:09:01.648Z,40.22
2022-12-27T00:09:34.098Z,43.05
2022-12-27T00:10:07.650Z,41.10
2022-12-27T00:10:39.819Z,45.00
2022-12-27T00:11:14.665Z,46.45
2022-12-27T00:11:46.770Z,45.80
2022-12-27T00:12:18.871Z,41.33
2022-12-27T00:12:50.735Z,42.35
2022-12-27T00:13:23.808Z,44.67
2022-12-27T00:13:58.576Z,46.03
2022-12-27T00:14:31.985Z,44.03
2022-12-27T00:15:05.604Z,58.00
2022-12-27T00:15:37.463Z,59.38
2022-12-27T00:16:11.682Z,57.53
2022-12-27T00:16:43.582Z,53.53
2022-12-27T00:17:15.493Z,63.85
2022-12-27T00:17:47.708Z,58.95
2022-12-27T00:18:19.535Z,55.55
2022-12-27T00:18:52.450Z,63.50
2022-12-27T00:19:24.359Z,63.50
2022-12-27T00:19:56.227Z,56.35
2022-12-27T00:20:28.107Z,58.53
2022-12-27T00:21:01.752Z,52.80
2022-12-27T00:21:33.667Z,55.08
2022-12-27T00:22:05.522Z,56.00
2022-12-27T00:22:37.357Z,52.53
2022-12-27T00:23:09.566Z,60.70
2022-12-27T00:23:45.046Z,62.20
2022-12-27T00:24:16.899Z,62.42
2022-12-27T00:24:48.835Z,56.70
2022-12-27T00:25:21.786Z,55.20
2022-12-27T00:26:01.252Z,54.97
2022-12-27T00:26:34.895Z,54.22
2022-12-27T00:27:06.753Z,53.75
2022-12-27T00:27:38.956Z,53.20
2022-12-27T00:28:11.118Z,45.63
2022-12-27T00:28:43.869Z,46.25
2022-12-27T00:29:15.786Z,44.00
2022-12-27T00:29:47.637Z,47.88
2022-12-27T00:30:19.519Z,39.17
2022-12-27T00:30:55.412Z,42.72
2022-12-27T00:31:30.738Z,48.00
2022-12-27T00:32:02.690Z,43.78
2022-12-27T00:32:34.750Z,41.13
2022-12-27T00:33:06.596Z,44.40
2022-12-27T00:33:40.199Z,48.65
2022-12-27T00:34:12.059Z,40.67
2022-12-27T00:34:43.914Z,42.67
2022-12-27T00:35:15.928Z,45.05
2022-12-27T00:35:47.779Z,40.92
2022-12-27T00:36:23.675Z,42.00
2022-12-27T00:36:55.543Z,42.53
2022-12-27T00:37:27.629Z,43.78
2022-12-27T00:37:59.659Z,43.85
2022-12-27T00:38:32.967Z,45.92
2022-12-27T00:39:05.541Z,40.53
2022-12-27T00:39:37.459Z,39.60
2022-12-27T00:40:10.136Z,40.28
2022-12-27T00:40:42.408Z,37.50
2022-12-27T00:41:15.169Z,35.35
2022-12-27T00:41:47.262Z,37.00
2022-12-27T00:42:19.135Z,35.30
2022-12-27T00:42:50.994Z,33.40
2022-12-27T00:43:22.892Z,36.80
2022-12-27T00:43:54.742Z,33.80
2022-12-27T00:44:26.929Z,34.88
2022-12-27T00:44:58.782Z,38.08
2022-12-27T00:45:30.759Z,36.20
2022-12-27T00:46:03.078Z,36.25
2022-12-27T00:46:34.952Z,38.83
2022-12-27T00:47:06.856Z,36.25
2022-12-27T00:47:38.747Z,39.05
2022-12-27T00:48:12.050Z,34.95
2022-12-27T00:48:44.413Z,35.83
2022-12-27T00:49:16.314Z,40.17
2022-12-27T00:49:48.449Z,36.13
2022-12-27T00:50:20.345Z,42.42
2022-12-27T00:51:05.462Z,36.45
2022-12-27T00:51:37.268Z,37.95
2022-12-27T00:52:09.139Z,36.88
2022-12-27T00:52:41.028Z,37.72
2022-12-27T00:53:13.315Z,38.40
2022-12-27T00:53:45.715Z,36.83
2022-12-27T00:54:17.547Z,42.67
2022-12-27T00:54:49.726Z,43.70
2022-12-27T00:55:21.694Z,42.70
2022-12-27T00:55:53.683Z,38.30
2022-12-27T00:56:31.088Z,39.75
2022-12-27T00:57:02.938Z,41.78
2022-12-27T00:57:34.779Z,39.47
2022-12-27T00:58:06.663Z,43.42
2022-12-27T00:58:40.955Z,40.58
2022-12-27T00:59:13.355Z,40.75
2022-12-27T00:59:45.340Z,42.47
2022-12-27T01:00:17.603Z,37.08
2022-12-27T01:00:50.591Z,40.35
2022-12-27T01:01:25.028Z,38.17
2022-12-27T01:01:57.156Z,40.90
2022-12-27T01:02:29.462Z,43.50
2022-12-27T01:03:01.486Z,40.55
2022-12-27T01:03:34.189Z,35.95
2022-12-27T01:04:06.552Z,36.38
2022-12-27T01:04:38.444Z,37.90
2022-12-27T01:05:10.384Z,37.45
2022-12-27T01:05:42.693Z,40.67
2022-12-27T01:06:17.763Z,34.33
2022-12-27T01:06:49.664Z,37.30
2022-12-27T01:07:21.531Z,37.45
2022-12-27T01:07:53.517Z,39.40
2022-12-27T01:08:25.375Z,40.42
2022-12-27T01:08:58.131Z,39.22
2022-12-27T01:09:29.968Z,40.35
2022-12-27T01:10:01.860Z,37.05
2022-12-27T01:10:33.985Z,39.15
2022-12-27T01:11:07.951Z,37.13
2022-12-27T01:11:41.706Z,36.83
2022-12-27T01:12:13.656Z,38.85
2022-12-27T01:12:45.509Z,37.47
2022-12-27T01:13:18.142Z,34.58
2022-12-27T01:13:50.094Z,37.80
2022-12-27T01:14:22.051Z,36.42
2022-12-27T01:14:53.916Z,37.45
2022-12-27T01:15:25.789Z,39.97
2022-12-27T01:15:57.762Z,35.90
2022-12-27T01:16:31.594Z,43.40
2022-12-27T01:17:03.496Z,36.03
2022-12-27T01:17:35.770Z,38.05
2022-12-27T01:18:07.614Z,37.10
2022-12-27T01:18:39.766Z,36.72
2022-12-27T01:19:12.298Z,36.92
2022-12-27T01:19:44.245Z,32.72
2022-12-27T01:20:16.195Z,34.85
2022-12-27T01:20:48.181Z,36.95
2022-12-27T01:21:22.308Z,34.08
2022-12-27T01:21:54.425Z,39.38
2022-12-27T01:22:26.283Z,37.17
2022-12-27T01:22:58.186Z,37.42
2022-12-27T01:23:32.086Z,37.97
2022-12-27T01:24:06.059Z,36.13
2022-12-27T01:24:37.931Z,35.60
2022-12-27T01:25:10.006Z,37.60
2022-12-27T01:25:41.876Z,36.03
2022-12-27T01:26:16.804Z,40.72
2022-12-27T01:26:48.727Z,41.33
2022-12-27T01:27:20.928Z,37.15
2022-12-27T01:27:52.806Z,39.70
2022-12-27T01:28:24.678Z,45.25
2022-12-27T01:28:56.650Z,41.78
2022-12-27T01:29:28.539Z,43.00
2022-12-27T01:30:00.403Z,45.75
2022-12-27T01:30:32.363Z,43.10
2022-12-27T01:31:09.889Z,41.55
2022-12-27T01:31:41.741Z,38.85
2022-12-27T01:32:13.661Z,40.08
2022-12-27T01:32:45.827Z,41.78
2022-12-27T01:33:17.670Z,43.85
2022-12-27T01:33:49.751Z,38.42
2022-12-27T01:34:21.601Z,40.05
2022-12-27T01:34:53.457Z,42.65
2022-12-27T01:35:25.378Z,39.38
2022-12-27T01:35:57.201Z,40.88
2022-12-27T01:36:31.679Z,38.08
2022-12-27T01:37:03.734Z,40.47
2022-12-27T01:37:35.594Z,41.42
2022-12-27T01:38:07.749Z,38.88
2022-12-27T01:38:42.624Z,36.20
2022-12-27T01:39:14.652Z,42.72
2022-12-27T01:39:46.535Z,43.05
2022-12-27T01:40:18.995Z,40.60
2022-12-27T01:40:50.863Z,41.37
2022-12-27T01:41:44.914Z,38.13
2022-12-27T01:42:37.010Z,41.78
2022-12-27T01:43:17.608Z,40.92
2022-12-27T01:43:49.470Z,45.08
2022-12-27T01:44:39.743Z,42.88
2022-12-27T01:45:36.223Z,44.13
2022-12-27T01:46:08.247Z,40.35
2022-12-27T01:46:41.318Z,40.15
2022-12-27T01:47:22.415Z,40.90
2022-12-27T01:48:14.742Z,41.33
2022-12-27T01:48:47.007Z,45.33
2022-12-27T01:49:18.885Z,40.92
2022-12-27T01:50:07.527Z,41.47
2022-12-27T01:50:45.210Z,42.15
2022-12-27T01:51:18.371Z,41.40
2022-12-27T01:51:50.230Z,48.22
2022-12-27T01:52:26.241Z,43.42
2022-12-27T01:53:19.084Z,44.60
2022-12-27T01:53:53.309Z,47.00
2022-12-27T01:54:25.704Z,42.35
2022-12-27T01:55:03.110Z,43.35
2022-12-27T01:55:47.453Z,45.50
2022-12-27T01:56:27.928Z,41.50
2022-12-27T01:56:59.856Z,42.55
2022-12-27T01:57:31.849Z,40.72
2022-12-27T01:58:10.895Z,47.60
2022-12-27T01:58:53.062Z,43.17
2022-12-27T01:59:25.823Z,38.17
2022-12-27T01:59:57.737Z,44.72
2022-12-27T02:00:29.689Z,38.78
2022-12-27T02:01:04.539Z,47.33
2022-12-27T02:01:42.612Z,42.90
2022-12-27T02:02:14.859Z,46.47
2022-12-27T02:02:47.169Z,44.55
2022-12-27T02:03:26.207Z,42.72
2022-12-27T02:04:06.125Z,52.38
2022-12-27T02:04:38.482Z,42.45
2022-12-27T02:05:13.715Z,39.70
2022-12-27T02:05:45.779Z,43.87
2022-12-27T02:06:20.990Z,45.88
2022-12-27T02:06:53.515Z,47.38
2022-12-27T02:07:31.421Z,44.92
2022-12-27T02:08:19.087Z,41.42
2022-12-27T02:09:08.801Z,40.25
2022-12-27T02:09:53.635Z,42.40
2022-12-27T02:10:27.971Z,38.75
2022-12-27T02:11:00.743Z,41.00
2022-12-27T02:11:55.284Z,44.15
2022-12-27T02:12:27.547Z,45.28
2022-12-27T02:13:00.606Z,40.83
2022-12-27T02:13:37.042Z,44.83
2022-12-27T02:14:10.930Z,42.85
2022-12-27T02:14:47.356Z,42.92
2022-12-27T02:15:19.244Z,43.70
2022-12-27T02:15:51.179Z,45.40
2022-12-27T02:16:23.070Z,42.40
2022-12-27T02:16:57.585Z,42.08
2022-12-27T02:17:33.274Z,45.40
2022-12-27T02:18:05.396Z,40.95
2022-12-27T02:18:37.261Z,44.65
2022-12-27T02:19:27.372Z,49.17
2022-12-27T02:20:18.557Z,45.75
2022-12-27T02:21:59.365Z,42.22
2022-12-27T02:23:27.513Z,45.55
2022-12-27T02:24:41.096Z,43.28
2022-12-27T02:25:26.040Z,46.08
2022-12-27T02:26:23.020Z,74.47
2022-12-27T02:27:34.077Z,119.43
2022-12-27T02:28:28.501Z,105.32
2022-12-27T02:29:51.696Z,99.78
2022-12-27T02:30:24.202Z,127.07
2022-12-27T02:31:04.851Z,106.50
2022-12-27T02:32:28.554Z,55.90
2022-12-27T02:33:12.461Z,49.17
2022-12-27T02:33:48.472Z,42.92
2022-12-27T02:34:51.527Z,43.08
2022-12-27T02:35:45.079Z,39.72
2022-12-27T02:36:37.219Z,40.05
2022-12-27T02:37:12.745Z,41.33
2022-12-27T02:37:54.823Z,47.08
2022-12-27T02:38:44.777Z,50.05
2022-12-27T02:39:19.402Z,45.47
2022-12-27T02:39:53.276Z,49.95
2022-12-27T02:40:46.487Z,48.85
2022-12-27T02:41:38.495Z,53.20
2022-12-27T02:42:29.968Z,46.05
2022-12-27T02:43:21.176Z,44.38
2022-12-27T02:44:13.917Z,44.20
2022-12-27T02:45:04.327Z,42.85
2022-12-27T02:46:01.474Z,42.72
2022-12-27T02:46:52.071Z,42.90
2022-12-27T02:47:43.407Z,45.47
2022-12-27T02:48:34.830Z,43.45
2022-12-27T02:49:46.797Z,41.28
2022-12-27T02:51:36.573Z,42.67
2022-12-27T02:52:45.380Z,46.20
2022-12-27T02:53:54.571Z,48.65
2022-12-27T02:54:50.258Z,39.38
2022-12-27T02:56:19.887Z,41.40
2022-12-27T02:57:14.300Z,40.70
2022-12-27T02:58:05.415Z,41.63
2022-12-27T02:59:38.265Z,42.58
2022-12-27T03:00:31.564Z,47.70
2022-12-27T03:01:45.295Z,52.97
2022-12-27T03:02:52.931Z,47.62
2022-12-27T03:03:44.790Z,42.03
2022-12-27T03:04:47.567Z,49.17
2022-12-27T03:05:37.273Z,47.08
2022-12-27T03:06:43.423Z,42.85
2022-12-27T03:07:52.942Z,43.45
2022-12-27T03:08:36.308Z,45.40
2022-12-27T03:09:45.201Z,43.67
2022-12-27T03:10:41.642Z,44.97
2022-12-27T03:11:32.502Z,41.75
2022-12-27T03:13:22.060Z,42.33
2022-12-27T03:14:44.503Z,44.80
2022-12-27T03:16:01.785Z,37.58
2022-12-27T03:16:55.827Z,42.53
2022-12-27T03:17:37.014Z,38.53
2022-12-27T03:18:19.406Z,39.53
2022-12-27T03:19:40.321Z,38.75
2022-12-27T03:20:36.842Z,40.95
2022-12-27T03:21:27.860Z,41.22
2022-12-27T03:22:18.354Z,50.00
2022-12-27T03:23:12.594Z,61.20
2022-12-27T03:24:05.093Z,57.88
2022-12-27T03:24:58.362Z,62.53
2022-12-27T03:25:35.076Z,56.28
2022-12-27T03:26:08.399Z,54.50
2022-12-27T03:26:45.404Z,53.85
2022-12-27T03:27:31.697Z,52.05
2022-12-27T03:28:31.618Z,51.30
2022-12-27T03:29:25.995Z,50.72
2022-12-27T03:30:19.590Z,53.58
2022-12-27T03:31:19.119Z,46.37
2022-12-27T03:32:14.529Z,49.72
2022-12-27T03:33:13.676Z,58.28
2022-12-27T03:33:47.649Z,56.22
2022-12-27T03:34:31.870Z,56.08
2022-12-27T03:35:13.118Z,56.58
2022-12-27T03:36:17.944Z,58.65
2022-12-27T03:37:10.009Z,51.40
2022-12-27T03:38:05.681Z,53.58
2022-12-27T03:38:47.083Z,52.13
2022-12-27T03:39:31.186Z,53.85
2022-12-27T03:40:18.919Z,54.13
2022-12-27T03:41:19.275Z,63.95
2022-12-27T03:42:23.967Z,61.78
2022-12-27T03:43:11.319Z,64.32
2022-12-27T03:43:43.252Z,65.85
2022-12-27T03:44:24.943Z,60.38
2022-12-27T03:44:57.011Z,65.47
2022-12-27T03:45:58.095Z,62.95
2022-12-27T03:46:34.826Z,53.85
2022-12-27T03:47:37.249Z,58.95
2022-12-27T03:48:13.994Z,55.10
2022-12-27T03:49:09.147Z,54.95
2022-12-27T03:49:50.469Z,47.45
2022-12-27T03:50:40.336Z,51.78
2022-12-27T03:51:15.628Z,56.85
2022-12-27T03:52:08.825Z,53.78
2022-12-27T03:52:59.190Z,51.08
2022-12-27T03:53:43.588Z,55.92
2022-12-27T03:54:43.368Z,59.15
2022-12-27T03:55:16.664Z,51.90
2022-12-27T03:55:49.230Z,51.05
2022-12-27T03:56:21.432Z,54.83
2022-12-27T03:57:07.535Z,51.60
2022-12-27T03:57:39.810Z,52.62
2022-12-27T03:58:11.995Z,49.03
2022-12-27T03:58:44.481Z,50.15
2022-12-27T03:59:16.364Z,53.15
2022-12-27T03:59:48.547Z,53.33
2022-12-27T04:00:20.419Z,52.80
2022-12-27T04:00:52.848Z,54.17
2022-12-27T04:01:25.170Z,57.90
2022-12-27T04:01:58.202Z,52.85
2022-12-27T04:02:30.241Z,55.78
2022-12-27T04:03:02.314Z,56.05
2022-12-27T04:03:34.338Z,52.53
2022-12-27T04:04:06.241Z,55.38
2022-12-27T04:04:38.430Z,54.33
2022-12-27T04:05:11.338Z,47.17
2022-12-27T04:05:43.195Z,52.22
2022-12-27T04:06:16.203Z,51.47
2022-12-27T04:06:48.160Z,54.22
2022-12-27T04:07:20.042Z,53.67
2022-12-27T04:08:11.744Z,52.13
2022-12-27T04:09:02.171Z,52.03
2022-12-27T04:09:52.517Z,49.55
2022-12-27T04:10:42.912Z,46.35
2022-12-27T04:11:33.835Z,46.85
2022-12-27T04:12:24.874Z,47.38
2022-12-27T04:13:15.282Z,47.20
2022-12-27T04:14:05.789Z,47.25
2022-12-27T04:14:56.164Z,43.72
2022-12-27T04:15:46.599Z,52.65
2022-12-27T04:16:37.651Z,43.38
2022-12-27T04:17:28.089Z,49.17
2022-12-27T04:18:18.464Z,50.20
2022-12-27T04:19:08.805Z,42.30
2022-12-27T04:19:59.230Z,43.13
2022-12-27T04:20:51.224Z,44.63
2022-12-27T04:21:42.171Z,42.97
2022-12-27T04:22:32.410Z,45.22
2022-12-27T04:23:22.827Z,42.50
2022-12-27T04:24:13.240Z,48.65
2022-12-27T04:25:03.728Z,44.80
2022-12-27T04:25:54.692Z,44.08
2022-12-27T04:26:45.704Z,42.97
2022-12-27T04:27:36.233Z,42.97
2022-12-27T04:28:26.661Z,39.53
2022-12-27T04:29:16.997Z,40.85
2022-12-27T04:30:07.418Z,41.88
2022-12-27T04:30:57.837Z,40.15
2022-12-27T04:31:49.008Z,40.70
2022-12-27T04:32:39.359Z,43.47
2022-12-27T04:33:29.730Z,39.75
2022-12-27T04:34:20.210Z,38.25
2022-12-27T04:34:52.060Z,43.72
2022-12-27T04:35:23.903Z,43.72
2022-12-27T04:35:55.757Z,47.72
2022-12-27T04:36:27.578Z,45.25
2022-12-27T04:36:59.739Z,46.17
2022-12-27T04:37:31.627Z,44.25
2022-12-27T04:38:03.544Z,49.08
2022-12-27T04:38:35.403Z,42.13
2022-12-27T04:39:07.627Z,43.33
2022-12-27T04:39:39.581Z,44.85
2022-12-27T04:40:30.724Z,43.28
2022-12-27T04:41:21.241Z,45.12
2022-12-27T04:42:11.696Z,36.50
2022-12-27T04:43:02.556Z,38.88
2022-12-27T04:43:52.874Z,34.53
2022-12-27T04:45:02.861Z,35.97
2022-12-27T04:45:53.374Z,35.10
2022-12-27T04:46:44.794Z,37.50
2022-12-27T04:47:38.842Z,42.88
2022-12-27T04:48:34.843Z,42.08
2022-12-27T04:49:30.916Z,39.38
2022-12-27T04:50:22.200Z,40.95
2022-12-27T04:51:12.581Z,36.22
2022-12-27T04:52:03.192Z,39.33
2022-12-27T04:52:53.873Z,38.25
2022-12-27T04:53:44.859Z,34.55
2022-12-27T04:54:43.050Z,35.47
2022-12-27T04:55:26.487Z,38.13
2022-12-27T04:55:58.630Z,39.40
2022-12-27T04:56:30.460Z,36.70
2022-12-27T04:57:02.402Z,32.65
2022-12-27T04:57:34.281Z,35.33
2022-12-27T04:58:06.208Z,34.83
2022-12-27T04:58:58.321Z,33.72
2022-12-27T04:59:49.021Z,32.55
2022-12-27T05:00:41.904Z,31.83
2022-12-27T05:01:32.837Z,33.88
2022-12-27T05:02:05.266Z,34.50
2022-12-27T05:02:37.729Z,31.15
2022-12-27T05:03:14.387Z,31.48
2022-12-27T05:03:49.234Z,37.55
2022-12-27T05:04:21.481Z,33.22
2022-12-27T05:04:53.457Z,34.47
2022-12-27T05:05:25.680Z,32.97
2022-12-27T05:05:57.529Z,34.90
2022-12-27T05:06:29.381Z,33.05
2022-12-27T05:07:24.410Z,36.47
2022-12-27T05:08:17.362Z,36.53
2022-12-27T05:09:08.293Z,31.17
2022-12-27T05:09:58.630Z,35.03
2022-12-27T05:10:49.292Z,28.85
2022-12-27T05:11:39.856Z,31.90
2022-12-27T05:12:30.309Z,32.28
2022-12-27T05:13:20.700Z,32.30
2022-12-27T05:14:02.161Z,28.48
2022-12-27T05:14:34.077Z,30.20
2022-12-27T05:15:06.387Z,31.05
2022-12-27T05:15:38.270Z,34.67
2022-12-27T05:16:10.153Z,36.22
2022-12-27T05:16:43.899Z,34.63
2022-12-27T05:17:15.763Z,35.85
2022-12-27T05:17:47.633Z,30.75
2022-12-27T05:18:19.524Z,38.10
2022-12-27T05:18:52.985Z,33.75
2022-12-27T05:19:25.212Z,32.50
2022-12-27T05:19:57.022Z,28.15
2022-12-27T05:20:28.897Z,31.12
2022-12-27T05:21:05.696Z,32.72
2022-12-27T05:22:02.234Z,30.12
2022-12-27T05:22:53.420Z,30.80
2022-12-27T05:23:43.724Z,34.05
2022-12-27T05:24:54.049Z,30.85
2022-12-27T05:25:35.281Z,33.05
2022-12-27T05:26:39.392Z,31.67
2022-12-27T05:27:11.257Z,31.10
2022-12-27T05:27:43.149Z,34.13
2022-12-27T05:28:15.065Z,31.05
2022-12-27T05:28:47.787Z,32.92
2022-12-27T05:29:19.618Z,37.13
2022-12-27T05:29:51.542Z,30.58
2022-12-27T05:30:23.388Z,34.63
2022-12-27T05:31:02.048Z,35.30
2022-12-27T05:31:35.106Z,29.85
2022-12-27T05:32:12.743Z,33.53
2022-12-27T05:32:45.190Z,30.20
2022-12-27T05:33:17.169Z,33.47
2022-12-27T05:33:50.103Z,32.40
2022-12-27T05:34:21.980Z,35.28
2022-12-27T05:34:53.833Z,34.55
2022-12-27T05:35:25.670Z,34.03
2022-12-27T05:35:58.955Z,33.45
2022-12-27T05:36:30.809Z,33.78
2022-12-27T05:37:02.707Z,33.75
2022-12-27T05:37:34.629Z,34.40
2022-12-27T05:38:06.984Z,37.05
2022-12-27T05:38:39.071Z,34.08
2022-12-27T05:39:10.911Z,31.70
2022-12-27T05:39:42.993Z,34.05
2022-12-27T05:40:15.348Z,32.13
2022-12-27T05:40:47.170Z,29.58
2022-12-27T05:41:19.360Z,32.45
2022-12-27T05:41:51.324Z,30.85
2022-12-27T05:42:23.169Z,38.20
2022-12-27T05:42:55.053Z,29.33
2022-12-27T05:43:28.156Z,30.08
2022-12-27T05:44:06.522Z,35.78
2022-12-27T05:44:39.141Z,31.67
2022-12-27T05:45:12.190Z,33.88
2022-12-27T05:45:44.404Z,42.55
2022-12-27T05:46:19.200Z,34.72
2022-12-27T05:46:51.447Z,33.97
2022-12-27T05:47:23.319Z,35.15
2022-12-27T05:47:55.388Z,33.13
2022-12-27T05:48:28.438Z,32.22
2022-12-27T05:49:00.409Z,33.03
2022-12-27T05:49:32.350Z,35.22
2022-12-27T05:50:04.845Z,32.67
2022-12-27T05:50:36.852Z,32.72
2022-12-27T05:51:20.164Z,33.65
2022-12-27T05:51:52.411Z,33.75
2022-12-27T05:52:24.610Z,31.40
2022-12-27T05:52:57.039Z,30.75
2022-12-27T05:53:29.043Z,31.67
2022-12-27T05:54:00.953Z,30.23
2022-12-27T05:54:32.935Z,34.33
2022-12-27T05:55:05.249Z,34.15
2022-12-27T05:55:37.252Z,34.75
2022-12-27T05:56:11.967Z,29.58
2022-12-27T05:56:44.577Z,31.23
2022-12-27T05:57:16.853Z,31.98
2022-12-27T05:57:48.845Z,29.90
2022-12-27T05:58:20.879Z,24.60
2022-12-27T05:58:53.972Z,28.73
2022-12-27T05:59:25.974Z,27.80
2022-12-27T05:59:57.931Z,28.30
2022-12-27T06:00:30.335Z,24.42
2022-12-27T06:01:09.579Z,23.38
2022-12-27T06:01:41.661Z,23.33
2022-12-27T06:02:13.759Z,22.08
2022-12-27T06:02:46.068Z,23.35
2022-12-27T06:03:18.358Z,21.27
2022-12-27T06:03:50.392Z,21.98
2022-12-27T06:04:22.339Z,22.35
2022-12-27T06:04:54.328Z,17.17
2022-12-27T06:05:26.778Z,19.50
2022-12-27T06:06:02.746Z,18.80
2022-12-27T06:06:35.076Z,16.95
2022-12-27T06:07:07.064Z,19.25
2022-12-27T06:07:39.567Z,17.17
2022-12-27T06:08:11.918Z,22.27
2022-12-27T06:08:43.870Z,14.77
2022-12-27T06:09:15.719Z,17.17
2022-12-27T06:09:47.684Z,14.27
2022-12-27T06:10:19.679Z,15.10
2022-12-27T06:10:53.916Z,14.15
2022-12-27T06:11:25.800Z,10.45
2022-12-27T06:11:58.003Z,11.18
2022-12-27T06:12:30.214Z,14.07
2022-12-27T06:13:03.263Z,11.52
2022-12-27T06:13:36.487Z,8.98
2022-12-27T06:14:08.352Z,10.43
2022-12-27T06:14:41.357Z,9.18
2022-12-27T06:15:13.301Z,8.05
2022-12-27T06:15:45.210Z,7.93
2022-12-27T06:16:17.210Z,7.93
2022-12-27T06:16:49.107Z,7.53
2022-12-27T06:17:21.414Z,8.23
2022-12-27T06:17:53.631Z,7.03
2022-12-27T06:18:25.483Z,7.22
2022-12-27T06:18:57.369Z,7.07
2022-12-27T06:19:29.285Z,7.60
2022-12-27T06:20:01.144Z,7.37
2022-12-27T06:20:32.988Z,8.25
2022-12-27T06:21:07.511Z,10.65
2022-12-27T06:21:40.487Z,11.10
2022-12-27T06:22:12.390Z,11.93
2022-12-27T06:22:44.824Z,10.88
2022-12-27T06:23:16.719Z,10.20
2022-12-27T06:23:49.561Z,10.90
2022-12-27T06:24:21.492Z,10.20
2022-12-27T06:24:53.346Z,10.30
2022-12-27T06:25:26.364Z,9.57
2022-12-27T06:25:58.444Z,7.68
2022-12-27T06:26:30.786Z,7.32
2022-12-27T06:27:02.683Z,6.60
2022-12-27T06:27:34.877Z,6.78
2022-12-27T06:28:07.039Z,9.95
2022-12-27T06:28:39.027Z,5.85
2022-12-27T06:29:13.677Z,7.80
2022-12-27T06:29:45.574Z,5.97
2022-12-27T06:30:17.481Z,6.82
2022-12-27T06:30:49.455Z,6.50
2022-12-27T06:31:22.355Z,7.47
2022-12-27T06:31:54.347Z,8.15
2022-12-27T06:32:26.292Z,8.77
2022-12-27T06:32:58.151Z,8.90
2022-12-27T06:33:31.011Z,10.82
2022-12-27T06:34:03.758Z,10.18
2022-12-27T06:34:35.703Z,8.90
2022-12-27T06:35:07.966Z,7.15
2022-12-27T06:35:40.063Z,7.95
2022-12-27T06:36:14.767Z,7.22
2022-12-27T06:36:50.800Z,6.95
2022-12-27T06:37:22.688Z,7.57
2022-12-27T06:37:54.542Z,8.93
2022-12-27T06:38:26.400Z,3.83
2022-12-27T06:39:00.095Z,5.40
2022-12-27T06:39:32.028Z,3.35
2022-12-27T06:40:04.349Z,3.30
2022-12-27T06:40:39.382Z,4.45
2022-12-27T06:41:17.382Z,3.90
2022-12-27T06:41:50.858Z,2.83
2022-12-27T06:42:23.335Z,3.17
2022-12-27T06:42:55.389Z,4.10
2022-12-27T06:43:27.259Z,4.00
2022-12-27T06:43:59.873Z,2.83
2022-12-27T06:44:31.730Z,4.53
2022-12-27T06:45:03.788Z,4.53
2022-12-27T06:45:35.701Z,4.57
2022-12-27T06:46:17.056Z,4.68
2022-12-27T06:46:50.333Z,3.35
2022-12-27T06:47:22.218Z,4.03
2022-12-27T06:47:54.093Z,4.32
2022-12-27T06:48:26.250Z,3.90
2022-12-27T06:48:58.107Z,4.30
2022-12-27T06:49:30.281Z,5.47
2022-12-27T06:50:02.938Z,5.20
2022-12-27T06:50:36.199Z,5.47
2022-12-27T06:51:10.271Z,7.28
2022-12-27T06:51:42.168Z,7.32
2022-12-27T06:52:14.215Z,11.20
2022-12-27T06:52:46.097Z,12.25
2022-12-27T06:53:17.997Z,11.32
2022-12-27T06:53:50.090Z,10.40
2022-12-27T06:54:22.239Z,11.05
2022-12-27T06:54:54.454Z,10.60
2022-12-27T06:55:26.353Z,11.60
2022-12-27T06:56:02.820Z,10.07
2022-12-27T06:56:34.901Z,10.70
2022-12-27T06:57:07.479Z,9.68
2022-12-27T06:57:39.432Z,7.12
2022-12-27T06:58:12.890Z,7.00
2022-12-27T06:58:46.766Z,7.03
2022-12-27T06:59:18.621Z,8.75
2022-12-27T06:59:53.948Z,4.62
2022-12-27T07:00:31.373Z,5.68
2022-12-27T07:01:13.852Z,5.18
2022-12-27T07:01:45.936Z,6.07
2022-12-27T07:02:18.006Z,8.75
2022-12-27T07:02:50.226Z,6.28
2022-12-27T07:03:22.400Z,5.10
2022-12-27T07:03:56.956Z,5.43
2022-12-27T07:04:28.813Z,6.18
2022-12-27T07:05:00.785Z,6.10
2022-12-27T07:05:36.421Z,6.53
2022-12-27T07:06:11.556Z,5.45
2022-12-27T07:06:44.046Z,4.72
2022-12-27T07:07:16.262Z,5.00
2022-12-27T07:07:48.205Z,7.32
2022-12-27T07:08:20.083Z,4.53
2022-12-27T07:08:52.386Z,4.25
2022-12-27T07:09:24.281Z,7.25
2022-12-27T07:09:56.103Z,6.37
2022-12-27T07:10:27.968Z,4.95
2022-12-27T07:11:05.728Z,4.53
2022-12-27T07:11:37.747Z,5.22
2022-12-27T07:12:09.567Z,6.03
2022-12-27T07:12:41.438Z,4.87
2022-12-27T07:13:13.791Z,4.65
2022-12-27T07:13:48.299Z,5.57
2022-12-27T07:14:20.154Z,6.25
2022-12-27T07:14:52.104Z,5.62
2022-12-27T07:15:24.082Z,5.65
2022-12-27T07:15:55.933Z,9.30
2022-12-27T07:16:29.523Z,5.55
2022-12-27T07:17:01.378Z,5.25
2022-12-27T07:17:35.190Z,6.07
2022-12-27T07:18:07.058Z,5.75
2022-12-27T07:18:39.417Z,4.45
2022-12-27T07:19:11.420Z,5.72
2022-12-27T07:19:43.276Z,5.85
2022-12-27T07:20:15.134Z,5.85
2022-12-27T07:20:47.010Z,3.87
2022-12-27T07:21:27.897Z,3.50
2022-12-27T07:22:00.172Z,5.70
2022-12-27T07:22:32.325Z,3.45
2022-12-27T07:23:04.403Z,2.97
2022-12-27T07:23:37.457Z,3.62
2022-12-27T07:24:12.754Z,5.15
2022-12-27T07:24:44.906Z,4.25
2022-12-27T07:25:17.285Z,3.87
2022-12-27T07:25:49.637Z,3.25
2022-12-27T07:26:30.412Z,5.57
2022-12-27T07:27:04.911Z,2.42
2022-12-27T07:27:37.909Z,2.30
2022-12-27T07:28:10.859Z,2.40
2022-12-27T07:28:43.499Z,2.95
2022-12-27T07:29:15.484Z,1.92
2022-12-27T07:29:54.728Z,1.73
2022-12-27T07:30:26.900Z,2.05
2022-12-27T07:30:59.014Z,4.80
2022-12-27T07:31:32.933Z,1.30
2022-12-27T07:32:05.422Z,2.30
2022-12-27T07:32:37.257Z,4.65
2022-12-27T07:33:09.336Z,2.10
2022-12-27T07:33:42.290Z,5.70
2022-12-27T07:34:14.760Z,1.77
2022-12-27T07:34:46.620Z,3.90
2022-12-27T07:35:18.518Z,1.52
2022-12-27T07:35:50.320Z,2.28
2022-12-27T07:36:25.374Z,1.83
2022-12-27T07:36:57.315Z,1.52
2022-12-27T07:37:29.504Z,1.92
2022-12-27T07:38:01.402Z,1.60
2022-12-27T07:38:33.336Z,1.87
2022-12-27T07:39:06.411Z,2.80
2022-12-27T07:39:38.239Z,1.52
2022-12-27T07:40:10.287Z,2.67
2022-12-27T07:40:42.129Z,3.10
2022-12-27T07:41:15.441Z,3.62
2022-12-27T07:41:48.395Z,2.58
2022-12-27T07:42:20.264Z,2.42
2022-12-27T07:42:53.497Z,1.85
2022-12-27T07:43:25.609Z,2.37
2022-12-27T07:43:57.489Z,5.45
2022-12-27T07:44:29.453Z,1.90
2022-12-27T07:45:01.321Z,2.90
2022-12-27T07:45:33.182Z,1.65
2022-12-27T07:46:09.697Z,3.10
2022-12-27T07:46:41.751Z,3.87
2022-12-27T07:47:13.777Z,2.80
2022-12-27T07:47:45.628Z,3.37
2022-12-27T07:48:17.798Z,3.53
2022-12-27T07:48:50.172Z,3.83
2022-12-27T07:49:22.678Z,2.30
2022-12-27T07:49:54.506Z,1.98
2022-12-27T07:50:26.439Z,3.80
2022-12-27T07:50:58.325Z,1.92
2022-12-27T07:51:30.233Z,2.65
2022-12-27T07:52:02.107Z,1.60
2022-12-27T07:52:33.969Z,1.80
2022-12-27T07:53:05.822Z,2.90
2022-12-27T07:53:38.197Z,1.98
2022-12-27T07:54:10.097Z,1.90
2022-12-27T07:54:42.014Z,2.85
2022-12-27T07:55:13.863Z,3.60
2022-12-27T07:55:47.204Z,2.67
2022-12-27T07:56:27.941Z,1.98
2022-12-27T07:57:31.481Z,1.20
2022-12-27T07:58:03.366Z,1.77
2022-12-27T07:58:40.984Z,2.30
2022-12-27T07:59:13.576Z,5.68
2022-12-27T07:59:45.427Z,2.15
2022-12-27T08:00:17.884Z,1.67
2022-12-27T08:00:52.478Z,2.08
2022-12-27T08:01:26.465Z,3.30
2022-12-27T08:02:04.586Z,1.98
2022-12-27T08:02:36.623Z,2.33
2022-12-27T08:03:08.545Z,2.55
2022-12-27T08:03:41.354Z,3.33
2022-12-27T08:04:13.228Z,2.85
2022-12-27T08:04:45.088Z,4.40
2022-12-27T08:05:18.430Z,2.65
2022-12-27T08:05:53.104Z,2.95
2022-12-27T08:06:31.256Z,1.77
2022-12-27T08:07:16.545Z,1.98
2022-12-27T08:07:48.442Z,2.05
2022-12-27T08:08:23.490Z,1.35
2022-12-27T08:08:58.112Z,1.95
2022-12-27T08:09:34.145Z,1.77
2022-12-27T08:10:07.022Z,2.50
2022-12-27T08:10:39.824Z,1.75
2022-12-27T08:11:12.142Z,2.50
2022-12-27T08:11:44.669Z,6.47